Time;durP1;ratioP1;P1;durP2;ratioP2;P2;SDS_P1;SDS_P2;PMS_P1;PMS_P2;Temp;Humidity;BMP_temperature;BMP_pressure;BME280_temperature;BME280_humidity;BME280_pressure;Samples;Min_cycle;Max_cycle;Signal;HPM_P1;HPM_P2
2024/02/14 00:01:31;;;;;;;6.90;3.57;;;7.00;99.90;;;;;;5047794;28;20207;-60
2024/02/14 00:03:57;;;;;;;9.40;3.53;;;7.00;99.90;;;;;;5046382;28;20234;-59
2024/02/14 00:06:23;;;;;;;8.07;3.60;;;7.00;99.90;;;;;;5047885;28;20197;-59
2024/02/14 00:08:49;;;;;;;9.03;3.60;;;6.90;99.90;;;;;;5043327;28;20648;-60
2024/02/14 00:11:14;;;;;;;9.53;4.03;;;7.00;99.90;;;;;;5027428;28;20291;-59
2024/02/14 00:13:40;;;;;;;7.03;3.60;;;7.00;99.90;;;;;;5023358;28;20652;-57
2024/02/14 00:16:06;;;;;;;8.60;3.53;;;7.10;99.90;;;;;;5023696;28;20653;-59
2024/02/14 00:18:32;;;;;;;11.10;3.63;;;7.00;99.90;;;;;;5039122;28;20204;-58
2024/02/14 00:20:57;;;;;;;9.47;3.53;;;7.00;99.90;;;;;;5036550;28;20206;-60
2024/02/14 00:23:23;;;;;;;9.33;4.10;;;6.90;99.90;;;;;;5008572;28;20199;-58
2024/02/14 00:25:48;;;;;;;8.93;3.60;;;7.00;99.90;;;;;;5030636;28;20191;-60
2024/02/14 00:28:14;;;;;;;7.93;3.87;;;7.00;99.90;;;;;;5038983;28;20535;-59
2024/02/14 00:30:39;;;;;;;6.93;3.40;;;7.00;99.90;;;;;;5031340;28;20315;-60
2024/02/14 00:33:05;;;;;;;7.30;3.90;;;6.90;99.90;;;;;;5029270;28;20655;-58
2024/02/14 00:35:31;;;;;;;14.80;3.80;;;6.90;99.90;;;;;;5018086;28;20484;-57
2024/02/14 00:37:56;;;;;;;11.47;3.90;;;6.90;99.90;;;;;;5042426;28;20183;-58
2024/02/14 00:40:22;;;;;;;9.37;3.80;;;6.90;99.90;;;;;;5033774;28;20276;-59
2024/02/14 00:42:48;;;;;;;8.13;3.87;;;7.00;99.90;;;;;;5008514;28;20705;-58
2024/02/14 00:45:13;;;;;;;12.67;4.83;;;7.00;99.90;;;;;;5042637;28;20226;-59
2024/02/14 00:47:39;;;;;;;10.90;4.17;;;7.00;99.90;;;;;;5033719;28;20616;-59
2024/02/14 00:50:06;;;;;;;16.00;5.27;;;7.00;99.90;;;;;;5042865;28;20282;-59
2024/02/14 00:52:31;;;;;;;9.40;4.47;;;6.90;99.90;;;;;;5041162;28;20191;-59
2024/02/14 00:54:57;;;;;;;12.10;4.10;;;6.90;99.90;;;;;;5044274;28;20264;-58
2024/02/14 00:57:25;;;;;;;9.80;3.90;;;6.90;99.90;;;;;;5033107;28;20192;-60
2024/02/14 00:59:52;;;;;;;8.93;3.23;;;6.80;99.90;;;;;;5035145;28;20191;-59
2024/02/14 01:02:18;;;;;;;6.67;2.90;;;6.80;99.90;;;;;;5050523;28;20190;-60
2024/02/14 01:04:43;;;;;;;7.00;2.67;;;6.80;99.90;;;;;;5050210;28;20215;-59
2024/02/14 01:07:09;;;;;;;5.43;2.50;;;6.80;99.90;;;;;;5049693;28;20183;-56
2024/02/14 01:09:36;;;;;;;7.23;2.67;;;6.80;99.90;;;;;;5033749;28;20191;-57
2024/02/14 01:12:02;;;;;;;5.73;2.30;;;6.90;99.90;;;;;;5034171;28;20183;-56
2024/02/14 01:14:27;;;;;;;4.53;2.03;;;6.90;99.90;;;;;;5023907;28;20195;-57
2024/02/14 01:16:53;;;;;;;4.53;1.90;;;6.90;99.90;;;;;;5032588;28;20588;-59
2024/02/14 01:19:19;;;;;;;13.33;3.00;;;6.90;99.90;;;;;;5026672;28;20192;-59
2024/02/14 01:21:48;;;;;;;7.50;2.40;;;7.00;99.90;;;;;;5043089;28;20214;-59
2024/02/14 01:24:14;;;;;;;6.97;2.40;;;6.90;99.90;;;;;;5034042;28;20211;-56
2024/02/14 01:26:40;;;;;;;6.20;2.77;;;6.90;99.90;;;;;;5046365;28;20191;-60
2024/02/14 01:29:06;;;;;;;7.80;2.47;;;6.90;99.90;;;;;;5044444;28;20179;-58
2024/02/14 01:31:33;;;;;;;5.87;2.53;;;6.90;99.90;;;;;;5030637;28;20341;-58
2024/02/14 01:33:59;;;;;;;6.93;2.67;;;6.90;99.90;;;;;;5037432;28;20728;-57
2024/02/14 01:36:24;;;;;;;9.20;2.30;;;6.90;99.90;;;;;;5032806;28;20187;-59
2024/02/14 01:38:50;;;;;;;6.97;2.50;;;6.90;99.90;;;;;;5041879;28;20191;-58
2024/02/14 01:41:15;;;;;;;11.13;2.87;;;7.00;99.90;;;;;;5049879;28;20218;-58
2024/02/14 01:43:41;;;;;;;7.00;2.87;;;7.00;99.90;;;;;;5022050;28;20215;-55
2024/02/14 01:46:07;;;;;;;5.37;2.50;;;6.90;99.90;;;;;;5021838;28;20635;-57
2024/02/14 01:48:36;;;;;;;5.90;2.63;;;7.00;99.90;;;;;;5019975;28;20223;-61
2024/02/14 01:51:03;;;;;;;5.13;2.50;;;6.90;99.90;;;;;;5038427;28;20199;-60
2024/02/14 01:53:32;;;;;;;7.07;2.30;;;6.90;99.90;;;;;;5049877;28;20214;-59
2024/02/14 01:55:59;;;;;;;8.23;2.87;;;6.90;99.90;;;;;;5039077;28;20300;-58
2024/02/14 01:58:25;;;;;;;5.00;2.47;;;6.90;99.90;;;;;;5036892;28;20187;-56
2024/02/14 02:00:56;;;;;;;6.90;2.10;;;6.90;99.90;;;;;;5049765;28;20209;-58
2024/02/14 02:03:26;;;;;;;3.93;2.00;;;6.90;99.90;;;;;;5016103;28;20253;-58
2024/02/14 02:05:55;;;;;;;5.43;1.93;;;6.90;99.90;;;;;;5026374;28;20187;-58
2024/02/14 02:08:21;;;;;;;5.53;2.10;;;7.00;99.90;;;;;;5017386;28;20692;-56
2024/02/14 02:10:47;;;;;;;6.73;2.37;;;6.90;99.90;;;;;;5037693;28;20564;-58
2024/02/14 02:13:15;;;;;;;5.53;2.40;;;7.00;99.90;;;;;;5046785;28;20194;-59
2024/02/14 02:15:44;;;;;;;5.10;2.03;;;7.00;99.90;;;;;;5038986;28;20288;-58
2024/02/14 02:18:09;;;;;;;7.73;2.20;;;6.90;99.90;;;;;;5030040;28;20187;-59
2024/02/14 02:20:35;;;;;;;8.20;2.17;;;6.90;99.90;;;;;;5030045;28;20291;-56
2024/02/14 02:23:01;;;;;;;5.27;1.93;;;6.90;99.90;;;;;;5017467;28;20193;-58
2024/02/14 02:25:27;;;;;;;9.47;2.23;;;6.90;99.90;;;;;;5041367;28;20179;-57
2024/02/14 02:27:56;;;;;;;7.50;2.30;;;6.90;99.90;;;;;;5041206;28;20187;-59
2024/02/14 02:30:22;;;;;;;4.23;1.87;;;6.90;99.90;;;;;;5049382;28;20207;-57
2024/02/14 02:32:50;;;;;;;3.03;1.60;;;6.90;99.90;;;;;;5053241;28;20233;-59
2024/02/14 02:35:15;;;;;;;4.50;1.80;;;7.00;99.90;;;;;;5036819;28;20186;-59
2024/02/14 02:37:42;;;;;;;8.17;2.30;;;7.00;99.90;;;;;;5035497;28;20187;-58
2024/02/14 02:40:10;;;;;;;3.57;1.97;;;7.00;99.90;;;;;;5053025;28;20234;-57
2024/02/14 02:42:36;;;;;;;4.33;1.80;;;6.90;99.90;;;;;;5034359;28;20203;-58
2024/02/14 02:45:05;;;;;;;6.30;2.03;;;6.90;99.90;;;;;;5038726;28;20213;-56
2024/02/14 02:47:32;;;;;;;3.00;1.60;;;6.90;99.90;;;;;;5051152;28;20179;-55
2024/02/14 02:49:59;;;;;;;8.07;2.30;;;6.90;99.90;;;;;;5036707;28;20204;-58
2024/02/14 02:52:25;;;;;;;5.00;1.93;;;6.90;99.90;;;;;;5038051;28;20191;-58
2024/02/14 02:54:52;;;;;;;4.50;2.13;;;7.00;99.90;;;;;;5028429;28;20198;-59
2024/02/14 02:57:18;;;;;;;4.70;2.07;;;6.90;99.90;;;;;;5044275;28;20188;-58
2024/02/14 02:59:45;;;;;;;5.10;2.00;;;6.90;99.90;;;;;;5035633;28;20182;-59
2024/02/14 03:02:11;;;;;;;5.57;1.90;;;6.90;99.90;;;;;;5045649;28;20238;-57
2024/02/14 03:04:38;;;;;;;6.67;1.80;;;6.90;99.90;;;;;;5040013;28;20686;-59
2024/02/14 03:07:06;;;;;;;6.53;2.43;;;6.90;99.90;;;;;;5031766;28;20263;-59
2024/02/14 03:09:32;;;;;;;3.53;1.80;;;7.00;99.90;;;;;;5033594;28;20203;-56
2024/02/14 03:11:58;;;;;;;4.30;2.00;;;7.00;99.90;;;;;;5043917;28;20698;-58
2024/02/14 03:14:23;;;;;;;4.20;1.70;;;6.90;99.90;;;;;;5035360;28;20283;-57
2024/02/14 03:16:49;;;;;;;8.13;2.40;;;7.00;99.90;;;;;;5043768;28;20659;-59
2024/02/14 03:19:15;;;;;;;7.10;1.97;;;7.00;99.90;;;;;;5052360;28;20563;-59
2024/02/14 03:21:40;;;;;;;6.97;2.00;;;7.00;99.90;;;;;;5046829;28;20207;-59
2024/02/14 03:24:10;;;;;;;4.83;1.70;;;6.90;99.90;;;;;;5040731;28;20238;-60
2024/02/14 03:26:36;;;;;;;3.90;1.67;;;6.90;99.90;;;;;;5034854;28;20179;-58
2024/02/14 03:29:06;;;;;;;4.57;1.80;;;6.90;99.90;;;;;;5041555;28;20327;-60
2024/02/14 03:31:31;;;;;;;3.83;1.80;;;7.00;99.90;;;;;;5039411;28;20200;-58
2024/02/14 03:33:57;;;;;;;6.07;1.90;;;6.90;99.90;;;;;;5039120;28;20180;-58
2024/02/14 03:36:24;;;;;;;3.23;1.50;;;6.90;99.90;;;;;;5047851;28;20266;-60
2024/02/14 03:38:50;;;;;;;4.20;1.60;;;6.90;99.90;;;;;;5044221;28;20192;-60
2024/02/14 03:41:15;;;;;;;7.77;1.80;;;6.90;99.90;;;;;;5043355;28;20218;-59
2024/02/14 03:43:41;;;;;;;5.20;1.67;;;6.90;99.90;;;;;;5035418;28;20282;-60
2024/02/14 03:46:06;;;;;;;4.33;1.67;;;6.90;99.90;;;;;;5051631;28;20171;-58
2024/02/14 03:48:32;;;;;;;4.47;1.60;;;6.90;99.90;;;;;;5032439;28;20187;-59
2024/02/14 03:50:58;;;;;;;4.73;1.67;;;6.90;99.90;;;;;;5038278;28;20610;-59
2024/02/14 03:53:24;;;;;;;6.77;2.00;;;6.90;99.90;;;;;;5026458;28;20592;-60
2024/02/14 03:55:50;;;;;;;5.23;1.60;;;6.90;99.90;;;;;;5019111;28;20183;-59
2024/02/14 03:58:22;;;;;;;7.60;1.90;;;6.80;99.90;;;;;;5035462;28;20667;-59
2024/02/14 04:00:50;;;;;;;4.90;2.57;;;6.90;99.90;;;;;;5035080;28;20231;-61
2024/02/14 04:03:16;;;;;;;3.60;1.53;;;6.90;99.90;;;;;;5035548;28;20206;-59
2024/02/14 04:05:42;;;;;;;7.23;1.90;;;6.90;99.90;;;;;;5026638;28;20337;-59
2024/02/14 04:08:09;;;;;;;8.87;2.17;;;7.00;99.90;;;;;;5036593;28;20239;-60
2024/02/14 04:10:35;;;;;;;3.80;2.03;;;6.90;99.90;;;;;;5047956;28;20203;-60
2024/02/14 04:13:03;;;;;;;4.50;2.30;;;6.90;99.90;;;;;;5044747;28;20179;-59
2024/02/14 04:15:28;;;;;;;2.90;2.07;;;6.90;99.90;;;;;;5048682;28;20702;-58
2024/02/14 04:17:54;;;;;;;6.07;1.83;;;6.90;99.90;;;;;;5027252;28;20268;-59
2024/02/14 04:20:19;;;;;;;11.10;2.67;;;7.00;99.90;;;;;;5026988;28;20678;-58
2024/02/14 04:22:45;;;;;;;5.17;1.80;;;6.90;99.90;;;;;;5051007;28;20183;-60
2024/02/14 04:25:11;;;;;;;4.30;1.70;;;6.90;99.90;;;;;;5036169;28;20813;-60
2024/02/14 04:27:37;;;;;;;3.63;1.60;;;6.90;99.90;;;;;;5020124;28;20647;-60
2024/02/14 04:30:05;;;;;;;5.20;1.90;;;7.00;99.90;;;;;;5033198;28;20282;-61
2024/02/14 04:32:31;;;;;;;5.63;1.57;;;7.00;99.90;;;;;;5037515;28;20188;-61
2024/02/14 04:34:57;;;;;;;4.33;1.77;;;7.10;99.90;;;;;;5023732;28;20206;-61
2024/02/14 04:37:23;;;;;;;4.67;1.63;;;7.10;99.90;;;;;;5029890;28;20190;-61
2024/02/14 04:39:48;;;;;;;3.63;2.00;;;7.10;99.90;;;;;;5035009;28;20612;-61
2024/02/14 04:42:14;;;;;;;2.57;1.43;;;7.30;99.90;;;;;;5032827;28;20194;-60
2024/02/14 04:44:39;;;;;;;7.70;1.70;;;7.20;99.90;;;;;;5041795;28;20226;-60
2024/02/14 04:47:05;;;;;;;3.53;1.67;;;7.30;99.90;;;;;;5041438;28;20463;-60
2024/02/14 04:49:31;;;;;;;5.00;2.00;;;7.20;99.90;;;;;;5050077;28;20240;-61
2024/02/14 04:51:57;;;;;;;5.40;1.57;;;7.20;99.90;;;;;;5050274;28;20199;-61
2024/02/14 04:54:23;;;;;;;4.90;1.70;;;7.20;99.90;;;;;;5041892;28;20187;-60
2024/02/14 04:56:48;;;;;;;4.53;1.73;;;7.20;99.90;;;;;;5034216;28;20208;-60
2024/02/14 04:59:14;;;;;;;6.03;2.20;;;7.20;99.90;;;;;;5018641;28;20188;-61
2024/02/14 05:01:40;;;;;;;4.17;1.67;;;7.20;99.90;;;;;;5045268;28;20764;-61
2024/02/14 05:04:08;;;;;;;4.00;2.07;;;7.30;99.90;;;;;;5024459;28;20223;-61
2024/02/14 05:06:34;;;;;;;7.70;2.40;;;7.20;99.90;;;;;;5027441;28;20190;-62
2024/02/14 05:08:59;;;;;;;6.60;2.27;;;7.10;99.90;;;;;;5015553;28;20184;-61
2024/02/14 05:11:25;;;;;;;4.50;2.17;;;7.10;99.90;;;;;;5034582;28;20253;-61
2024/02/14 05:13:50;;;;;;;5.90;2.30;;;7.20;99.90;;;;;;5026706;28;20242;-61
2024/02/14 05:16:20;;;;;;;7.30;2.40;;;7.20;99.90;;;;;;5010083;28;20181;-59
2024/02/14 05:18:46;;;;;;;4.67;2.27;;;7.20;99.90;;;;;;5029426;28;20192;-58
2024/02/14 05:21:11;;;;;;;9.43;2.90;;;7.20;99.90;;;;;;5028092;28;20249;-53
2024/02/14 05:23:37;;;;;;;11.40;4.97;;;7.20;99.90;;;;;;5030972;28;20576;-58
2024/02/14 05:26:03;;;;;;;5.07;3.00;;;7.20;99.90;;;;;;5034816;28;20179;-60
2024/02/14 05:28:29;;;;;;;10.80;3.97;;;7.10;99.90;;;;;;5031831;28;20206;-57
2024/02/14 05:30:55;;;;;;;8.03;2.90;;;7.20;99.90;;;;;;5042140;28;20206;-57
2024/02/14 05:33:22;;;;;;;8.87;3.40;;;7.10;99.90;;;;;;5025375;28;20554;-57
2024/02/14 05:35:51;;;;;;;6.50;3.30;;;7.20;99.90;;;;;;5017890;28;20192;-55
2024/02/14 05:38:19;;;;;;;14.80;3.53;;;7.20;99.90;;;;;;5033059;28;20542;-59
2024/02/14 05:40:45;;;;;;;7.23;3.00;;;7.10;99.90;;;;;;5021218;28;20199;-58
2024/02/14 05:43:11;;;;;;;7.27;3.07;;;7.20;99.90;;;;;;5023257;28;20211;-59
2024/02/14 05:45:37;;;;;;;8.10;2.47;;;7.30;99.90;;;;;;5025762;28;20180;-53
2024/02/14 05:48:03;;;;;;;19.20;5.93;;;7.30;99.90;;;;;;5022804;28;20194;-58
2024/02/14 05:50:29;;;;;;;11.03;3.63;;;7.30;99.90;;;;;;5021746;28;20208;-55
2024/02/14 05:52:57;;;;;;;11.47;3.40;;;7.30;99.90;;;;;;5023474;28;20248;-59
2024/02/14 05:55:22;;;;;;;10.07;3.90;;;7.20;99.90;;;;;;5049173;28;20586;-60
2024/02/14 05:57:48;;;;;;;10.47;3.93;;;7.20;99.90;;;;;;5048550;28;20541;-59
2024/02/14 06:00:14;;;;;;;5.50;2.40;;;7.20;99.90;;;;;;5049231;28;20214;-58
2024/02/14 06:02:40;;;;;;;6.60;2.90;;;7.30;99.90;;;;;;5022491;28;20195;-58
2024/02/14 06:05:09;;;;;;;6.10;3.00;;;7.30;99.90;;;;;;5034834;28;20624;-57
2024/02/14 06:07:38;;;;;;;8.27;2.70;;;7.30;99.90;;;;;;5040167;28;20187;-59
2024/02/14 06:10:03;;;;;;;10.80;3.30;;;7.20;99.90;;;;;;5049000;28;20576;-59
2024/02/14 06:12:32;;;;;;;9.70;3.03;;;7.30;99.90;;;;;;5048805;28;20249;-56
2024/02/14 06:14:57;;;;;;;4.67;2.07;;;7.30;99.90;;;;;;5049228;28;20195;-54
2024/02/14 06:17:23;;;;;;;3.93;1.83;;;7.20;99.90;;;;;;5048880;28;20186;-55
2024/02/14 06:19:49;;;;;;;7.60;2.57;;;7.20;99.90;;;;;;5032627;28;20191;-59
2024/02/14 06:22:14;;;;;;;6.47;2.20;;;7.20;99.90;;;;;;5036197;28;20198;-57
2024/02/14 06:24:40;;;;;;;4.87;2.57;;;7.10;99.90;;;;;;5014466;28;20559;-59
2024/02/14 06:27:07;;;;;;;4.53;1.93;;;7.20;99.90;;;;;;5030784;28;20179;-56
2024/02/14 06:29:32;;;;;;;5.87;2.40;;;7.20;99.90;;;;;;5041264;28;20183;-56
2024/02/14 06:31:58;;;;;;;8.17;2.43;;;7.20;99.90;;;;;;5044467;28;20199;-57
2024/02/14 06:34:24;;;;;;;10.27;2.83;;;7.10;99.90;;;;;;5021216;28;20196;-55
2024/02/14 06:36:49;;;;;;;5.93;2.60;;;7.10;99.90;;;;;;5012548;28;20207;-56
2024/02/14 06:39:15;;;;;;;7.20;2.60;;;7.10;99.90;;;;;;5036980;28;20199;-54
2024/02/14 06:41:40;;;;;;;4.90;2.73;;;7.10;99.90;;;;;;5034157;28;20354;-55
2024/02/14 06:44:06;;;;;;;5.93;2.07;;;7.10;99.90;;;;;;5038617;28;20207;-59
2024/02/14 06:46:32;;;;;;;8.07;2.60;;;7.20;99.90;;;;;;5034173;28;20249;-57
2024/02/14 06:48:57;;;;;;;10.63;3.03;;;7.20;99.90;;;;;;5034908;28;20343;-58
2024/02/14 06:51:24;;;;;;;9.33;2.63;;;7.20;99.90;;;;;;5017336;28;20212;-60
2024/02/14 06:53:50;;;;;;;8.57;2.63;;;7.20;99.90;;;;;;5028482;28;20187;-55
2024/02/14 06:56:16;;;;;;;9.53;2.60;;;7.20;99.90;;;;;;5045561;28;20188;-57
2024/02/14 06:58:41;;;;;;;9.50;3.30;;;7.20;99.90;;;;;;5035455;28;20560;-57
2024/02/14 07:01:07;;;;;;;7.87;2.93;;;7.10;99.90;;;;;;5014901;28;20208;-57
2024/02/14 07:03:33;;;;;;;6.50;3.23;;;7.10;99.90;;;;;;5048714;28;20206;-56
2024/02/14 07:05:59;;;;;;;8.70;3.20;;;7.20;99.90;;;;;;5045428;28;20596;-58
2024/02/14 07:08:27;;;;;;;6.87;3.07;;;7.20;99.90;;;;;;5017579;28;20251;-60
2024/02/14 07:10:54;;;;;;;6.97;3.10;;;7.20;99.90;;;;;;5031999;28;20203;-57
2024/02/14 07:13:19;;;;;;;12.20;3.60;;;7.30;99.90;;;;;;5029826;28;20277;-58
2024/02/14 07:15:45;;;;;;;9.60;3.70;;;7.30;99.90;;;;;;5043685;28;20623;-58
2024/02/14 07:18:11;;;;;;;7.27;3.00;;;7.30;99.90;;;;;;5045732;28;20180;-58
2024/02/14 07:20:36;;;;;;;5.00;2.70;;;7.30;99.90;;;;;;5031963;28;20216;-57
2024/02/14 07:23:03;;;;;;;8.13;3.63;;;7.30;99.90;;;;;;5040075;28;20570;-53
2024/02/14 07:25:28;;;;;;;7.00;3.30;;;7.20;99.90;;;;;;5038565;28;20706;-54
2024/02/14 07:27:54;;;;;;;8.13;3.50;;;7.30;99.90;;;;;;5034993;28;20179;-58
2024/02/14 07:30:19;;;;;;;7.90;3.23;;;7.30;99.90;;;;;;5027288;28;20212;-57
2024/02/14 07:32:45;;;;;;;6.40;3.20;;;7.30;99.90;;;;;;5042277;28;20245;-58
2024/02/14 07:35:13;;;;;;;8.50;3.30;;;7.30;99.90;;;;;;5043114;28;20191;-57
2024/02/14 07:37:39;;;;;;;8.07;3.47;;;7.30;99.90;;;;;;5032744;28;20200;-54
2024/02/14 07:40:05;;;;;;;7.13;3.87;;;7.30;99.90;;;;;;5039316;28;20256;-55
2024/02/14 07:42:31;;;;;;;8.40;3.60;;;7.30;99.90;;;;;;5047402;28;20335;-59
2024/02/14 07:44:57;;;;;;;6.23;3.70;;;7.30;99.90;;;;;;5030905;28;20270;-57
2024/02/14 07:47:23;;;;;;;8.23;3.57;;;7.40;99.90;;;;;;5013101;28;20435;-57
2024/02/14 07:49:48;;;;;;;6.90;3.30;;;7.50;99.90;;;;;;5017070;28;20184;-56
2024/02/14 07:52:14;;;;;;;6.30;3.43;;;7.40;99.90;;;;;;5034309;28;20207;-57
2024/02/14 07:54:39;;;;;;;31.30;12.30;;;7.50;99.90;;;;;;5046713;28;20348;-57
2024/02/14 07:57:05;;;;;;;19.33;8.10;;;7.60;99.90;;;;;;5022248;28;20195;-58
2024/02/14 07:59:30;;;;;;;14.33;6.60;;;7.60;99.90;;;;;;5038753;28;20187;-55
2024/02/14 08:01:57;;;;;;;10.40;4.20;;;7.70;99.90;;;;;;5030393;28;20202;-53
2024/02/14 08:04:22;;;;;;;5.00;3.50;;;7.70;99.90;;;;;;5030429;28;20710;-57
2024/02/14 08:06:51;;;;;;;7.93;3.50;;;7.60;99.90;;;;;;5030065;28;20208;-53
2024/02/14 08:09:16;;;;;;;7.40;3.50;;;7.70;99.90;;;;;;5029964;28;20188;-57
2024/02/14 08:11:42;;;;;;;8.90;2.97;;;7.70;99.90;;;;;;5030276;28;20199;-57
2024/02/14 08:14:08;;;;;;;4.73;2.60;;;7.80;99.90;;;;;;5030372;28;20184;-60
2024/02/14 08:16:34;;;;;;;6.10;3.13;;;7.80;99.90;;;;;;5029767;28;20184;-58
2024/02/14 08:18:59;;;;;;;7.37;3.20;;;7.80;99.90;;;;;;5038534;28;20206;-55
2024/02/14 08:21:28;;;;;;;9.87;3.57;;;7.80;99.90;;;;;;5030539;28;20704;-56
2024/02/14 08:23:55;;;;;;;12.47;3.43;;;7.80;99.90;;;;;;5030128;28;20200;-58
2024/02/14 08:26:22;;;;;;;7.50;3.30;;;7.90;99.90;;;;;;5029851;28;20216;-56
2024/02/14 08:28:51;;;;;;;9.27;3.80;;;7.90;99.90;;;;;;5033175;28;20179;-58
2024/02/14 08:31:16;;;;;;;6.97;4.10;;;8.00;99.90;;;;;;5041924;28;20623;-58
2024/02/14 08:33:43;;;;;;;12.23;4.40;;;8.10;99.90;;;;;;5031084;28;20188;-57
2024/02/14 08:36:08;;;;;;;6.70;3.80;;;8.00;99.90;;;;;;5038277;28;20215;-54
2024/02/14 08:38:35;;;;;;;9.70;3.73;;;8.10;99.90;;;;;;5029347;28;20265;-58
2024/02/14 08:41:02;;;;;;;8.83;4.30;;;8.10;99.90;;;;;;5034546;28;20616;-57
2024/02/14 08:43:31;;;;;;;9.53;3.97;;;8.20;99.90;;;;;;5032914;28;20274;-54
2024/02/14 08:45:56;;;;;;;11.23;4.87;;;8.20;99.90;;;;;;5029893;28;20612;-55
2024/02/14 08:48:23;;;;;;;7.77;4.00;;;8.30;99.90;;;;;;5029496;28;20183;-56
2024/02/14 08:50:49;;;;;;;10.57;4.57;;;8.50;99.90;;;;;;5029580;28;20202;-56
2024/02/14 08:53:15;;;;;;;9.83;4.50;;;8.50;99.90;;;;;;5029464;28;20183;-57
2024/02/14 08:55:40;;;;;;;7.23;3.43;;;8.60;99.90;;;;;;5021287;28;20191;-59
2024/02/14 08:58:06;;;;;;;6.40;3.37;;;8.70;99.90;;;;;;5029503;28;20180;-58
2024/02/14 09:00:35;;;;;;;7.77;3.20;;;8.80;99.90;;;;;;5011508;28;20204;-57
2024/02/14 09:03:00;;;;;;;5.70;3.50;;;9.00;99.90;;;;;;5039071;28;20176;-57
2024/02/14 09:05:28;;;;;;;6.00;3.60;;;9.20;99.90;;;;;;5029380;28;20195;-59
2024/02/14 09:07:54;;;;;;;6.47;3.83;;;9.20;99.90;;;;;;5040562;28;20638;-55
2024/02/14 09:10:19;;;;;;;9.03;4.50;;;9.40;99.90;;;;;;5049070;28;20206;-55
2024/02/14 09:12:45;;;;;;;6.03;2.03;;;9.50;99.90;;;;;;5032643;28;20188;-57
2024/02/14 09:15:11;;;;;;;9.23;3.80;;;9.60;99.90;;;;;;5040918;28;20183;-59
2024/02/14 09:17:39;;;;;;;8.37;4.10;;;9.70;99.90;;;;;;5038747;28;20179;-57
2024/02/14 09:20:09;;;;;;;6.97;3.60;;;9.80;99.90;;;;;;5037369;28;20191;-58
2024/02/14 09:22:35;;;;;;;5.10;3.20;;;9.90;99.90;;;;;;5021929;28;20195;-56
2024/02/14 09:25:04;;;;;;;4.43;2.70;;;10.00;99.90;;;;;;5040787;28;20609;-57
2024/02/14 09:27:30;;;;;;;10.27;3.50;;;10.00;99.90;;;;;;5031787;28;20186;-57
2024/02/14 09:29:55;;;;;;;15.23;3.20;;;10.10;99.90;;;;;;5007465;28;20230;-58
2024/02/14 09:32:21;;;;;;;4.40;2.67;;;10.20;99.90;;;;;;5032573;28;20187;-55
2024/02/14 09:34:47;;;;;;;4.27;2.00;;;10.30;99.90;;;;;;5032514;28;20223;-55
2024/02/14 09:37:13;;;;;;;11.97;6.20;;;10.40;99.90;;;;;;5048721;28;20202;-54
2024/02/14 09:39:38;;;;;;;14.40;5.47;;;10.30;99.90;;;;;;5030736;28;20190;-55
2024/02/14 09:42:09;;;;;;;2.40;1.73;;;10.30;99.90;;;;;;5015458;28;20188;-54
2024/02/14 09:44:37;;;;;;;5.83;1.70;;;10.20;99.90;;;;;;5026583;28;20212;-55
2024/02/14 09:47:05;;;;;;;2.50;1.40;;;10.20;99.90;;;;;;5028464;28;20313;-57
2024/02/14 09:49:31;;;;;;;3.40;1.50;;;10.10;99.90;;;;;;5037094;28;20191;-53
2024/02/14 09:51:58;;;;;;;2.17;1.47;;;10.00;99.90;;;;;;5037541;28;20191;-53
2024/02/14 09:54:25;;;;;;;4.10;1.33;;;10.10;99.90;;;;;;5028690;28;20194;-53
2024/02/14 09:56:57;;;;;;;2.60;1.40;;;10.10;99.90;;;;;;5045216;28;20176;-56
2024/02/14 09:59:24;;;;;;;2.53;1.47;;;10.20;99.90;;;;;;5029160;28;20211;-56
2024/02/14 10:01:51;;;;;;;2.57;1.60;;;10.20;99.90;;;;;;5036953;28;20713;-56
2024/02/14 10:04:18;;;;;;;5.70;1.80;;;10.30;99.90;;;;;;5037117;28;20722;-55
2024/02/14 10:06:48;;;;;;;1.33;1.00;;;10.30;99.90;;;;;;5009761;28;20649;-57
2024/02/14 10:09:19;;;;;;;1.47;1.10;;;10.30;99.90;;;;;;5021716;28;20180;-57
2024/02/14 10:11:46;;;;;;;3.93;1.30;;;10.40;99.90;;;;;;5046108;28;20234;-56
2024/02/14 10:14:12;;;;;;;1.87;1.10;;;10.50;99.90;;;;;;5003815;28;20652;-58
2024/02/14 10:16:38;;;;;;;3.67;1.20;;;10.60;99.90;;;;;;5033500;28;20298;-56
2024/02/14 10:19:04;;;;;;;1.57;0.83;;;10.70;99.90;;;;;;5047366;28;20374;-58
2024/02/14 10:21:33;;;;;;;1.20;0.80;;;10.70;99.90;;;;;;5040891;28;20240;-57
2024/02/14 10:24:02;;;;;;;4.43;1.40;;;10.60;99.90;;;;;;5035710;28;20212;-56
2024/02/14 10:26:29;;;;;;;6.73;1.00;;;10.70;99.90;;;;;;5028323;28;20186;-58
2024/02/14 10:28:56;;;;;;;2.00;0.90;;;10.70;99.90;;;;;;5048388;28;20180;-55
2024/02/14 10:31:27;;;;;;;3.57;1.13;;;10.70;99.90;;;;;;5024838;28;20369;-58
2024/02/14 10:33:55;;;;;;;3.93;1.40;;;10.70;99.90;;;;;;5027739;28;20673;-54
2024/02/14 10:36:21;;;;;;;4.07;1.50;;;10.90;99.90;;;;;;5044360;28;20195;-59
2024/02/14 10:38:50;;;;;;;1.67;1.00;;;11.10;99.90;;;;;;5040211;28;20195;-55
2024/02/14 10:41:16;;;;;;;1.73;0.93;;;11.40;99.90;;;;;;5031913;28;20207;-58
2024/02/14 10:43:42;;;;;;;2.17;0.70;;;11.40;99.90;;;;;;5032009;28;20227;-56
2024/02/14 10:46:21;;;;;;;1.10;0.60;;;11.30;99.90;;;;;;5034658;28;20180;-55
2024/02/14 10:48:47;;;;;;;1.43;0.67;;;11.40;99.90;;;;;;5039571;28;20168;-57
2024/02/14 10:51:16;;;;;;;2.70;0.80;;;11.50;99.90;;;;;;5046563;28;20708;-57
2024/02/14 10:53:45;;;;;;;1.80;0.70;;;11.50;99.90;;;;;;5039482;28;20238;-55
2024/02/14 10:56:16;;;;;;;2.40;0.90;;;11.50;99.90;;;;;;5031472;28;20183;-61
2024/02/14 10:58:44;;;;;;;2.37;0.90;;;11.50;99.90;;;;;;5035202;28;20868;-56
2024/02/14 11:01:11;;;;;;;3.03;0.70;;;11.50;99.90;;;;;;5051478;28;20217;-58
2024/02/14 11:03:36;;;;;;;1.27;0.70;;;11.40;99.90;;;;;;5033953;28;20747;-60
2024/02/14 11:06:03;;;;;;;1.40;0.70;;;11.50;99.90;;;;;;5040111;28;20282;-60
2024/02/14 11:08:33;;;;;;;1.10;0.73;;;11.40;99.90;;;;;;5047398;28;20175;-60
2024/02/14 11:11:00;;;;;;;1.60;0.80;;;11.50;99.90;;;;;;5023465;28;20253;-60
2024/02/14 11:13:32;;;;;;;2.27;0.80;;;11.50;99.90;;;;;;5031708;28;20183;-60
2024/02/14 11:16:00;;;;;;;3.07;1.17;;;11.40;99.90;;;;;;5011868;28;20176;-60
2024/02/14 11:18:29;;;;;;;1.97;0.87;;;11.30;99.90;;;;;;5011451;28;20184;-60
2024/02/14 11:20:56;;;;;;;1.67;0.80;;;11.30;99.90;;;;;;5019939;28;20212;-60
2024/02/14 11:23:22;;;;;;;2.00;0.90;;;11.40;99.90;;;;;;5042751;28;20171;-60
2024/02/14 11:25:48;;;;;;;2.77;1.00;;;11.40;99.90;;;;;;5034225;28;20528;-61
2024/02/14 11:28:19;;;;;;;1.63;0.80;;;11.30;99.90;;;;;;5038717;28;20196;-60
2024/02/14 11:30:45;;;;;;;1.53;0.80;;;11.50;99.90;;;;;;5033072;28;20214;-60
2024/02/14 11:33:18;;;;;;;3.90;0.80;;;11.70;99.90;;;;;;5039511;28;20185;-60
2024/02/14 11:35:51;;;;;;;3.30;1.33;;;11.80;99.90;;;;;;5024251;28;20244;-61
2024/02/14 11:38:17;;;;;;;3.83;0.90;;;11.70;99.90;;;;;;5020924;28;20590;-60
2024/02/14 11:40:43;;;;;;;3.07;0.90;;;11.60;99.90;;;;;;5039837;28;20204;-60
2024/02/14 11:43:17;;;;;;;2.57;0.70;;;11.70;99.90;;;;;;5034519;28;20225;-59
2024/02/14 11:45:45;;;;;;;1.00;0.60;;;11.80;99.90;;;;;;5030127;28;20179;-60
2024/02/14 11:48:14;;;;;;;2.07;0.90;;;11.90;99.90;;;;;;5027142;28;20184;-60
2024/02/14 11:50:41;;;;;;;2.33;0.70;;;12.00;99.90;;;;;;5037082;28;20204;-60
2024/02/14 11:53:10;;;;;;;2.20;0.70;;;12.00;99.90;;;;;;5036375;28;20262;-60
2024/02/14 11:55:37;;;;;;;0.60;0.50;;;12.00;99.90;;;;;;5024391;28;20290;-60
2024/02/14 11:58:13;;;;;;;1.10;0.60;;;12.00;99.90;;;;;;5045532;28;20214;-60
2024/02/14 12:00:51;;;;;;;3.07;0.73;;;12.10;99.90;;;;;;5040248;28;20267;-60
2024/02/14 12:03:19;;;;;;;1.27;0.60;;;12.10;99.90;;;;;;5050439;28;20215;-60
2024/02/14 12:05:51;;;;;;;3.07;0.90;;;12.30;99.90;;;;;;5033964;28;20203;-60
2024/02/14 12:08:17;;;;;;;3.63;1.17;;;12.30;99.90;;;;;;5044079;28;20176;-60
2024/02/14 12:10:46;;;;;;;2.10;0.93;;;12.30;99.90;;;;;;5030521;28;20203;-60
2024/02/14 12:13:13;;;;;;;4.50;1.07;;;12.30;99.90;;;;;;5030580;28;20199;-60
2024/02/14 12:15:39;;;;;;;1.53;0.60;;;12.50;99.90;;;;;;5031718;28;20188;-60
2024/02/14 12:18:05;;;;;;;4.53;1.23;;;12.60;99.90;;;;;;5023626;28;20318;-60
2024/02/14 12:20:32;;;;;;;4.07;1.00;;;12.60;99.90;;;;;;5027234;28;20229;-60
2024/02/14 12:22:58;;;;;;;3.93;1.50;;;12.60;99.90;;;;;;5034744;28;20214;-59
2024/02/14 12:25:23;;;;;;;2.67;0.83;;;12.60;99.90;;;;;;5034213;28;20670;-60
2024/02/14 12:27:52;;;;;;;2.57;0.80;;;12.50;99.90;;;;;;5041675;28;20554;-60
2024/02/14 12:30:21;;;;;;;4.00;1.40;;;12.30;99.90;;;;;;5047474;28;20207;-60
2024/02/14 12:32:58;;;;;;;4.10;0.93;;;12.30;99.90;;;;;;5032447;28;20188;-60
2024/02/14 12:35:24;;;;;;;3.13;1.13;;;12.30;99.90;;;;;;5042844;28;20794;-60
2024/02/14 12:37:50;;;;;;;2.80;1.63;;;12.20;99.90;;;;;;4997856;28;20183;-60
2024/02/14 12:40:16;;;;;;;5.77;1.20;;;12.20;99.90;;;;;;5035376;28;20204;-60
2024/02/14 12:42:42;;;;;;;3.37;1.00;;;12.30;99.90;;;;;;5047115;28;20221;-59
2024/02/14 12:45:09;;;;;;;1.97;0.90;;;12.40;99.90;;;;;;5031168;28;20647;-61
2024/02/14 12:47:34;;;;;;;3.00;0.97;;;12.40;99.90;;;;;;5026869;28;20179;-60
2024/02/14 12:50:00;;;;;;;3.43;0.90;;;12.30;99.90;;;;;;5025976;28;20204;-60